Aérodrome :
LOGIN :

S'inscrire | Disclaimer

   EN    FR    IT 

 










Légende :    VFR   VFR Marginal   IFR   IFR Intensif   IFR Très Intensif
Visi : 
Plafond : 
>= 8 km
>= 3000ft
5 à 8 km
1000 à 3000 ft
1500m à 5 km
500 à 1000 ft
800 à 1500m
200 à 500 ft
< 800m
< 200 ft
Symboles :   Orages  Brouillard  Fortes neiges  Fortes précipitations  Vent > 20 kt
SIGMETs :   Divers  Orages  Givrage  Turbulence  Onde Orograph.  Cendres Volcan.






- Altitude de l'aérodrome : 412 ft
- Code IATA : ORE


LFOJ - Orleans

DERNIER METAR :
  • 122130Z AUTO 22014KT 9999 BKN029 BKN140 BKN180 08/07 Q0987 BECMG 25025G35KT 4900 -RA BKN008

METARs EXPIRÉS :
  • 122100Z AUTO 22012KT 9999 FEW018 BKN200 08/07 Q0987 BECMG 25025G35KT 4900 -RA BKN008
  • 122030Z AUTO 24016KT 9999 BKN046 08/07 Q0987 BECMG 25025G35KT 4900 -RA BKN008
  • 122000Z AUTO 24013KT 9999 FEW021 BKN043 08/07 Q0988 BECMG 18010G20KT OVC008
  • 121930Z AUTO 25014KT 9999 BKN020 BKN140 08/07 Q0987 BECMG 18010G20KT OVC008
  • 121900Z AUTO 24017KT 9999 FEW011 OVC019 09/08 Q0988 BECMG 18010G20KT OVC008

TAF TAF LFOJ
Valide du 12 à 21h jusqu'au 13 à 21h UTC


122000Z 1221/1321 25013KT 9999 BKN020
BECMG 1222/1224 25025G35KT 4900 -RA BKN008
BECMG 1301/1303 9999 BKN040
PROB30
TEMPO 1303/1313 25030G50KT
TEMPO 1305/1317 4900 -SHRA BKN015TCU
BECMG 1319/1321 4900 -RA



MET'MAP, la Météo Aéronautique d'un coup d'oeil ! - Copyright ORBIFLY Décembre 2007 - Disclaimer

ORBIFLY MET'MAP TEAM :

Programmation & Développement : Alexandra Zaïnal
Sur une idée originale de : Baudouin d'Aumeries
Assistance à la programmation : Marc-Olivier Méhu
Soutien technique & logistique : Manuel Goepfert

Contact : metmap@orbifly.com




SOURCES & CREDITS :

   NOAA